createdAt,value
2022-10-31T00:02:04.952Z,11.53
2022-10-31T00:05:07.285Z,11.54
2022-10-31T00:08:10.299Z,11.57
2022-10-31T00:11:12.291Z,11.65
2022-10-31T00:14:13.904Z,11.68
2022-10-31T00:17:15.547Z,11.61
2022-10-31T00:20:17.369Z,11.51
2022-10-31T00:23:20.484Z,11.47
2022-10-31T00:26:22.142Z,11.53
2022-10-31T00:29:23.723Z,11.53
2022-10-31T00:32:25.382Z,11.49
2022-10-31T00:35:26.976Z,11.45
2022-10-31T00:38:29.999Z,11.44
2022-10-31T00:41:31.707Z,11.48
2022-10-31T00:44:33.384Z,11.41
2022-10-31T00:47:35.102Z,11.38
2022-10-31T00:50:37.504Z,11.25
2022-10-31T00:53:40.558Z,11.21
2022-10-31T00:56:42.359Z,11.28
2022-10-31T00:59:44.016Z,11.24
2022-10-31T01:02:46.630Z,11.28
2022-10-31T01:05:56.754Z,11.19
2022-10-31T01:09:00.059Z,11.23
2022-10-31T01:12:01.691Z,11.18
2022-10-31T01:15:04.001Z,11.12
2022-10-31T01:18:05.618Z,11.15
2022-10-31T01:21:09.152Z,11.12
2022-10-31T01:24:12.104Z,11.18
2022-10-31T01:27:14.096Z,11.16
2022-10-31T01:30:15.964Z,11.14
2022-10-31T01:33:17.602Z,11.14
2022-10-31T01:36:21.644Z,11.16
2022-10-31T01:39:27.364Z,11.18
2022-10-31T01:42:29.031Z,11.13
2022-10-31T01:45:30.794Z,11.17
2022-10-31T01:48:32.392Z,11.19
2022-10-31T01:51:39.644Z,11.13
2022-10-31T01:54:49.419Z,11.21
2022-10-31T01:57:54.757Z,11.26
2022-10-31T02:01:03.244Z,11.30
2022-10-31T02:04:08.824Z,11.33
2022-10-31T02:07:14.927Z,11.38
2022-10-31T02:10:18.851Z,11.36
2022-10-31T02:13:22.326Z,11.38
2022-10-31T02:16:24.981Z,11.41
2022-10-31T02:19:35.704Z,11.52
2022-10-31T02:22:45.114Z,11.50
2022-10-31T02:26:19.435Z,11.41
2022-10-31T02:29:54.549Z,11.27
2022-10-31T02:33:23.392Z,11.26
2022-10-31T02:36:29.693Z,11.22
2022-10-31T02:39:39.020Z,11.21
2022-10-31T02:42:50.240Z,11.05
2022-10-31T02:46:01.999Z,11.04
2022-10-31T02:49:11.733Z,11.03
2022-10-31T02:52:18.048Z,10.95
2022-10-31T02:55:47.750Z,10.81
2022-10-31T02:58:52.774Z,10.85
2022-10-31T03:02:13.999Z,10.77
2022-10-31T03:05:29.531Z,10.77
2022-10-31T03:08:36.487Z,10.71
2022-10-31T03:11:45.710Z,10.75
2022-10-31T03:14:54.474Z,10.68
2022-10-31T03:18:02.386Z,10.67
2022-10-31T03:21:11.627Z,10.59
2022-10-31T03:24:14.336Z,10.58
2022-10-31T03:27:19.808Z,10.57
2022-10-31T03:30:21.518Z,10.58
2022-10-31T03:33:35.623Z,10.55
2022-10-31T03:36:40.963Z,10.66
2022-10-31T03:39:45.361Z,10.72
2022-10-31T03:42:59.400Z,10.71
2022-10-31T03:46:01.592Z,10.71
2022-10-31T03:49:04.083Z,10.78
2022-10-31T03:52:19.228Z,10.82
2022-10-31T03:55:29.101Z,10.83
2022-10-31T03:58:38.136Z,10.81
2022-10-31T04:01:45.783Z,10.77
2022-10-31T04:04:49.416Z,10.82
2022-10-31T04:07:56.938Z,10.81
2022-10-31T04:11:01.351Z,10.76
2022-10-31T04:14:05.628Z,10.68
2022-10-31T04:17:14.422Z,10.65
2022-10-31T04:20:18.133Z,10.64
2022-10-31T04:23:25.121Z,10.55
2022-10-31T04:26:26.923Z,10.58
2022-10-31T04:29:29.193Z,10.58
2022-10-31T04:32:31.130Z,10.59
2022-10-31T04:35:33.256Z,10.49
2022-10-31T04:38:36.358Z,10.50
2022-10-31T04:41:43.531Z,10.48
2022-10-31T04:44:51.091Z,10.50
2022-10-31T04:47:52.791Z,10.53
2022-10-31T04:50:59.171Z,10.56
2022-10-31T04:54:02.360Z,10.51
2022-10-31T04:57:06.622Z,10.35
2022-10-31T05:00:09.600Z,10.36
2022-10-31T05:03:11.436Z,10.47
2022-10-31T05:06:13.232Z,10.33
2022-10-31T05:09:18.434Z,10.28
2022-10-31T05:12:20.129Z,10.19
2022-10-31T05:15:40.299Z,10.20
2022-10-31T05:19:04.828Z,10.04
2022-10-31T05:22:25.187Z,10.06
2022-10-31T05:25:30.134Z,9.97
2022-10-31T05:28:31.796Z,10.07
2022-10-31T05:31:34.888Z,10.06
2022-10-31T05:34:37.658Z,10.02
2022-10-31T05:37:52.161Z,10.06
2022-10-31T05:41:03.060Z,10.13
2022-10-31T05:44:07.051Z,10.05
2022-10-31T05:47:19.572Z,9.94
2022-10-31T05:50:44.075Z,9.95
2022-10-31T05:53:47.206Z,9.88
2022-10-31T05:56:50.292Z,9.90
2022-10-31T05:59:56.118Z,9.88
2022-10-31T06:02:59.949Z,9.82
2022-10-31T06:06:25.614Z,9.85
2022-10-31T06:09:27.444Z,9.74
2022-10-31T06:12:30.894Z,9.80
2022-10-31T06:15:51.125Z,9.68
2022-10-31T06:18:56.461Z,9.56
2022-10-31T06:21:58.140Z,9.56
2022-10-31T06:25:00.391Z,9.55
2022-10-31T06:28:06.566Z,9.66
2022-10-31T06:31:24.348Z,9.67
2022-10-31T06:34:26.012Z,9.74
2022-10-31T06:37:27.758Z,9.69
2022-10-31T06:40:36.034Z,9.66
2022-10-31T06:44:09.050Z,9.80
2022-10-31T06:47:30.671Z,9.89
2022-10-31T06:50:32.348Z,9.91
2022-10-31T06:53:33.930Z,9.96
2022-10-31T06:56:36.152Z,10.04
2022-10-31T06:59:40.075Z,10.19
2022-10-31T07:02:55.393Z,10.22
2022-10-31T07:05:58.883Z,10.26
2022-10-31T07:09:00.586Z,10.33
2022-10-31T07:12:02.193Z,10.26
2022-10-31T07:15:08.013Z,10.36
2022-10-31T07:18:11.496Z,10.46
2022-10-31T07:21:13.402Z,10.41
2022-10-31T07:24:15.395Z,10.55
2022-10-31T07:27:41.637Z,10.61
2022-10-31T07:30:50.711Z,10.70
2022-10-31T07:33:54.596Z,10.64
2022-10-31T07:37:02.234Z,10.66
2022-10-31T07:40:07.173Z,10.79
2022-10-31T07:43:14.043Z,10.93
2022-10-31T07:46:46.627Z,10.94
2022-10-31T07:50:08.443Z,11.02
2022-10-31T07:53:31.974Z,11.16
2022-10-31T07:56:43.668Z,11.31
2022-10-31T07:59:45.391Z,11.43
2022-10-31T08:02:48.721Z,11.57
2022-10-31T08:06:09.220Z,11.70
2022-10-31T08:09:40.125Z,11.74
2022-10-31T08:12:57.683Z,11.88
2022-10-31T08:16:04.458Z,12.01
2022-10-31T08:19:09.967Z,12.16
2022-10-31T08:22:13.909Z,12.32
2022-10-31T08:25:15.814Z,12.40
2022-10-31T08:28:18.065Z,12.53
2022-10-31T08:31:22.233Z,12.66
2022-10-31T08:34:25.359Z,12.84
2022-10-31T08:38:05.582Z,12.92
2022-10-31T08:41:07.339Z,13.17
2022-10-31T08:44:09.084Z,13.35
2022-10-31T08:47:10.731Z,13.50
2022-10-31T08:50:14.180Z,13.52
2022-10-31T08:53:17.837Z,13.53
2022-10-31T08:56:23.284Z,13.60
2022-10-31T08:59:25.118Z,13.74
2022-10-31T09:02:46.778Z,13.75
2022-10-31T09:05:51.660Z,13.74
2022-10-31T09:08:53.381Z,13.94
2022-10-31T09:11:55.111Z,14.08
2022-10-31T09:15:16.936Z,14.18
2022-10-31T09:18:23.937Z,14.22
2022-10-31T09:21:31.761Z,14.17
2022-10-31T09:24:34.130Z,14.15
2022-10-31T09:27:35.808Z,14.18
2022-10-31T09:30:38.079Z,14.44
2022-10-31T09:33:39.771Z,14.48
2022-10-31T09:37:02.755Z,14.50
2022-10-31T09:40:05.351Z,14.46
2022-10-31T09:43:20.462Z,14.56
2022-10-31T09:46:31.432Z,14.62
2022-10-31T09:49:54.432Z,14.38
2022-10-31T09:53:03.607Z,14.48
2022-10-31T09:56:09.243Z,14.69
2022-10-31T09:59:18.000Z,14.83
2022-10-31T10:02:26.304Z,14.87
2022-10-31T10:05:35.178Z,14.80
2022-10-31T10:08:41.408Z,15.11
2022-10-31T10:12:15.844Z,15.30
2022-10-31T10:15:34.102Z,15.21
2022-10-31T10:18:47.810Z,15.38
2022-10-31T10:21:58.524Z,15.50
2022-10-31T10:25:15.638Z,15.74
2022-10-31T10:28:22.225Z,15.64
2022-10-31T10:31:28.575Z,15.65
2022-10-31T10:34:32.916Z,15.90
2022-10-31T10:37:39.320Z,15.69
2022-10-31T10:40:43.143Z,16.07
2022-10-31T10:43:44.987Z,16.14
2022-10-31T10:47:11.666Z,16.47
2022-10-31T10:50:19.296Z,16.44
2022-10-31T10:53:49.865Z,16.43
2022-10-31T10:57:05.525Z,16.67
2022-10-31T11:00:18.184Z,16.65
2022-10-31T11:03:20.558Z,16.76
2022-10-31T11:06:26.721Z,16.97
2022-10-31T11:09:28.469Z,16.70
2022-10-31T11:12:34.376Z,16.43
2022-10-31T11:15:52.687Z,16.42
2022-10-31T11:19:05.858Z,16.52
2022-10-31T11:22:09.652Z,16.60
2022-10-31T11:25:22.422Z,16.61
2022-10-31T11:28:26.476Z,16.54
2022-10-31T11:31:28.568Z,16.31
2022-10-31T11:34:33.986Z,16.16
2022-10-31T11:37:41.324Z,16.28
2022-10-31T11:40:52.963Z,16.46
2022-10-31T11:44:00.178Z,16.73
2022-10-31T11:47:04.090Z,16.45
2022-10-31T11:50:11.714Z,16.40
2022-10-31T11:53:17.099Z,16.54
2022-10-31T11:56:19.070Z,16.54
2022-10-31T11:59:29.286Z,16.53
2022-10-31T12:02:31.614Z,16.58
2022-10-31T12:05:33.925Z,16.82
2022-10-31T12:08:37.414Z,16.76
2022-10-31T12:11:47.669Z,16.88
2022-10-31T12:15:00.744Z,16.77
2022-10-31T12:18:36.519Z,16.85
2022-10-31T12:21:53.012Z,16.90
2022-10-31T12:25:08.705Z,17.11
2022-10-31T12:28:41.357Z,16.84
2022-10-31T12:32:10.254Z,16.83
2022-10-31T12:35:27.039Z,16.80
2022-10-31T12:38:55.597Z,16.81
2022-10-31T12:42:06.702Z,16.79
2022-10-31T12:45:32.022Z,16.96
2022-10-31T12:48:57.535Z,16.92
2022-10-31T12:52:15.182Z,17.00
2022-10-31T12:55:35.227Z,17.07
2022-10-31T12:58:41.161Z,16.86
2022-10-31T13:01:50.218Z,16.99
2022-10-31T13:04:57.510Z,17.16
2022-10-31T13:08:06.455Z,17.14
2022-10-31T13:11:12.431Z,17.01
2022-10-31T13:14:23.158Z,16.82
2022-10-31T13:17:30.971Z,16.98
2022-10-31T13:20:41.423Z,16.97
2022-10-31T13:23:50.769Z,16.79
2022-10-31T13:26:55.916Z,16.67
2022-10-31T13:30:01.818Z,16.72
2022-10-31T13:33:10.662Z,16.74
2022-10-31T13:36:22.306Z,16.83
2022-10-31T13:39:33.315Z,16.74
2022-10-31T13:42:47.937Z,16.77
2022-10-31T13:45:51.551Z,16.76
2022-10-31T13:48:53.185Z,16.72
2022-10-31T13:52:07.210Z,16.73
2022-10-31T13:55:39.347Z,16.80
2022-10-31T13:58:55.893Z,16.83
2022-10-31T14:02:01.217Z,17.44
2022-10-31T14:05:06.861Z,17.83
2022-10-31T14:08:23.209Z,18.02
2022-10-31T14:11:32.850Z,18.15
2022-10-31T14:14:46.507Z,17.93
2022-10-31T14:17:51.219Z,17.71
2022-10-31T14:20:52.920Z,17.68
2022-10-31T14:23:56.814Z,17.24
2022-10-31T14:27:01.781Z,16.97
2022-10-31T14:30:16.817Z,17.11
2022-10-31T14:33:21.216Z,17.35
2022-10-31T14:36:29.007Z,17.48
2022-10-31T14:39:36.580Z,17.45
2022-10-31T14:42:57.839Z,17.32
2022-10-31T14:46:03.149Z,17.15
2022-10-31T14:49:27.737Z,17.02
2022-10-31T14:52:29.451Z,16.87
2022-10-31T14:55:33.214Z,16.80
2022-10-31T14:58:39.333Z,16.72
2022-10-31T15:01:55.034Z,16.58
2022-10-31T15:04:59.816Z,16.30
2022-10-31T15:08:01.683Z,16.11
2022-10-31T15:11:13.276Z,16.03
2022-10-31T15:14:24.430Z,15.85
2022-10-31T15:17:27.220Z,15.66
2022-10-31T15:20:31.045Z,15.65
2022-10-31T15:23:33.678Z,15.45
2022-10-31T15:26:43.853Z,15.41
2022-10-31T15:29:50.321Z,15.46
2022-10-31T15:32:58.340Z,15.34
2022-10-31T15:36:02.171Z,15.42
2022-10-31T15:39:04.027Z,15.43
2022-10-31T15:42:19.205Z,15.31
2022-10-31T15:45:24.679Z,15.35
2022-10-31T15:48:26.434Z,15.29
2022-10-31T15:51:31.202Z,15.29
2022-10-31T15:54:33.410Z,15.30
2022-10-31T15:57:41.467Z,15.34
2022-10-31T16:00:43.221Z,15.40
2022-10-31T16:03:44.969Z,15.38
2022-10-31T16:07:00.356Z,15.44
2022-10-31T16:10:04.695Z,15.58
2022-10-31T16:13:09.155Z,15.59
2022-10-31T16:16:34.224Z,15.48
2022-10-31T16:19:39.445Z,15.88
2022-10-31T16:22:41.939Z,16.27
2022-10-31T16:25:43.634Z,16.41
2022-10-31T16:29:03.465Z,16.24
2022-10-31T16:32:42.378Z,16.18
2022-10-31T16:35:44.031Z,16.12
2022-10-31T16:38:45.684Z,16.31
2022-10-31T16:41:52.094Z,16.39
2022-10-31T16:44:55.145Z,16.57
2022-10-31T16:48:04.692Z,16.48
2022-10-31T16:51:08.216Z,16.43
2022-10-31T16:54:11.472Z,16.29
2022-10-31T16:57:28.007Z,16.33
2022-10-31T17:00:31.613Z,16.47
2022-10-31T17:03:33.822Z,16.33
2022-10-31T17:06:36.789Z,16.21
2022-10-31T17:09:38.509Z,16.38
2022-10-31T17:12:43.396Z,16.10
2022-10-31T17:15:48.528Z,15.75
2022-10-31T17:18:50.342Z,15.64
2022-10-31T17:21:52.003Z,15.58
2022-10-31T17:24:53.676Z,15.48
2022-10-31T17:27:56.458Z,15.28
2022-10-31T17:30:59.625Z,15.19
2022-10-31T17:34:02.755Z,15.25
2022-10-31T17:37:05.302Z,15.82
2022-10-31T17:40:07.891Z,15.95
2022-10-31T17:43:10.915Z,16.06
2022-10-31T17:46:14.008Z,15.89
2022-10-31T17:49:15.692Z,15.64
2022-10-31T17:52:17.336Z,15.30
2022-10-31T17:55:19.741Z,15.11
2022-10-31T17:58:21.339Z,14.85
2022-10-31T18:01:24.650Z,14.69
2022-10-31T18:04:26.553Z,14.73
2022-10-31T18:07:28.457Z,14.74
2022-10-31T18:10:30.130Z,14.80
2022-10-31T18:13:31.752Z,14.65
2022-10-31T18:19:41.381Z,14.51
2022-10-31T18:22:43.073Z,14.34
2022-10-31T18:25:44.714Z,14.21
2022-10-31T18:28:46.403Z,14.17
2022-10-31T18:31:51.334Z,14.14
2022-10-31T18:34:53.023Z,14.02
2022-10-31T18:37:56.042Z,14.03
2022-10-31T18:40:59.839Z,13.90
2022-10-31T18:44:01.445Z,13.73
2022-10-31T18:47:04.589Z,13.84
2022-10-31T18:50:07.221Z,13.63
2022-10-31T18:53:08.936Z,13.62
2022-10-31T18:56:11.292Z,13.61
2022-10-31T18:59:12.970Z,13.58
2022-10-31T19:02:17.481Z,13.55
2022-10-31T19:05:21.269Z,13.58
2022-10-31T19:08:23.736Z,13.62
2022-10-31T19:11:25.916Z,13.51
2022-10-31T19:14:27.614Z,13.56
2022-10-31T19:17:30.657Z,13.51
2022-10-31T19:20:32.595Z,13.54
2022-10-31T19:23:34.419Z,13.49
2022-10-31T19:26:36.107Z,13.60
2022-10-31T19:29:37.777Z,13.47
2022-10-31T19:32:40.798Z,13.45
2022-10-31T19:35:42.527Z,13.44
2022-10-31T19:38:45.992Z,13.34
2022-10-31T19:41:47.631Z,13.19
2022-10-31T19:44:49.363Z,13.13
2022-10-31T19:47:52.447Z,13.12
2022-10-31T19:51:00.144Z,13.11
2022-10-31T19:54:01.871Z,13.06
2022-10-31T19:57:03.669Z,13.22
2022-10-31T20:00:06.658Z,13.25
2022-10-31T20:03:18.402Z,13.17
2022-10-31T20:06:24.968Z,13.14
2022-10-31T20:09:26.713Z,13.09
2022-10-31T20:12:29.615Z,12.94
2022-10-31T20:15:31.380Z,13.03
2022-10-31T20:18:35.831Z,13.01
2022-10-31T20:21:39.532Z,12.87
2022-10-31T20:24:41.220Z,12.80
2022-10-31T20:27:43.006Z,12.89
2022-10-31T20:30:44.888Z,12.75
2022-10-31T20:33:48.816Z,12.78
2022-10-31T20:36:50.561Z,12.61
2022-10-31T20:39:54.172Z,12.63
2022-10-31T20:42:58.592Z,12.57
2022-10-31T20:46:00.799Z,12.55
2022-10-31T20:49:03.941Z,12.55
2022-10-31T20:52:05.710Z,12.56
2022-10-31T20:55:08.070Z,12.52
2022-10-31T20:58:09.819Z,12.43
2022-10-31T21:01:13.605Z,12.40
2022-10-31T21:04:16.877Z,12.50
2022-10-31T21:07:18.630Z,12.54
2022-10-31T21:10:20.421Z,12.52
2022-10-31T21:13:22.475Z,12.60
2022-10-31T21:16:26.895Z,12.47
2022-10-31T21:19:29.956Z,12.50
2022-10-31T21:22:31.901Z,12.62
2022-10-31T21:25:33.721Z,12.54
2022-10-31T21:28:35.888Z,12.53
2022-10-31T21:31:38.500Z,13.14
2022-10-31T21:34:41.476Z,13.43
2022-10-31T21:37:43.194Z,13.52
2022-10-31T21:40:44.833Z,13.54
2022-10-31T21:43:49.056Z,13.41
2022-10-31T21:46:50.685Z,13.53
2022-10-31T21:49:53.745Z,13.91
2022-10-31T21:52:55.359Z,14.34
2022-10-31T21:56:03.033Z,14.67
2022-10-31T21:59:05.273Z,14.76
2022-10-31T22:02:09.369Z,14.83
2022-10-31T22:05:12.394Z,14.87
2022-10-31T22:08:14.086Z,14.91
2022-10-31T22:11:17.652Z,15.07
2022-10-31T22:14:19.356Z,15.21
2022-10-31T22:17:20.941Z,15.25
2022-10-31T22:20:24.580Z,15.03
2022-10-31T22:23:26.308Z,14.93
2022-10-31T22:26:28.153Z,14.78
2022-10-31T22:29:29.776Z,14.65
2022-10-31T22:32:31.474Z,14.47
2022-10-31T22:35:35.095Z,14.32
2022-10-31T22:38:40.081Z,14.29
2022-10-31T22:41:42.142Z,14.33
2022-10-31T22:44:43.787Z,14.14
2022-10-31T22:47:45.385Z,13.93
2022-10-31T22:50:48.422Z,13.75
2022-10-31T22:53:50.904Z,13.64
2022-10-31T22:56:52.613Z,13.66
2022-10-31T22:59:54.571Z,13.68
2022-10-31T23:02:56.233Z,13.78
2022-10-31T23:06:01.383Z,13.75
2022-10-31T23:09:07.136Z,13.74
2022-10-31T23:12:27.495Z,13.79
2022-10-31T23:15:29.180Z,13.78
2022-10-31T23:18:49.179Z,13.76
2022-10-31T23:22:01.953Z,13.72
2022-10-31T23:25:04.252Z,13.66
2022-10-31T23:28:05.871Z,13.56
2022-10-31T23:31:07.567Z,13.48
2022-10-31T23:34:09.415Z,13.50
2022-10-31T23:37:13.381Z,13.48
2022-10-31T23:40:15.303Z,13.46
2022-10-31T23:43:16.923Z,13.39
2022-10-31T23:46:18.570Z,13.36
2022-10-31T23:49:20.569Z,13.38
2022-10-31T23:52:23.679Z,13.38
2022-10-31T23:55:25.323Z,13.34
2022-10-31T23:58:26.985Z,13.34
